Minto, Canada
Current Conditions -  °F | °C
As of 7:06 PM on Friday 28 Nov 2014 (Local Time) from CYBR Reporting Station
Light Snow Light Snow  
Wind Chill: -11°   Ceiling: 2400
Heat Index:   Visibility: 4mi
Dew Point:   Wind: 16mph
Humidity: 85%   Direction: 80°E
Pressure: 29.64"   Gusts: NA
Location:  49.4°N, 100.02°W
Report Text: CYBR 290106Z 08014KT 4SM -SN DRSN FEW008 OVC024 M14/M16 A2964 RMK SF2SC6 SLP073
Loading
Personal Weather Stations






























Interactive Weather Map New forecast layout! Learn more

10-Day Weather Forecast

Advertisements
Track Severe Weather on mobile